Time;durP1;ratioP1;P1;durP2;ratioP2;P2;SDS_P1;SDS_P2;PMS_P1;PMS_P2;Temp;Humidity;BMP_temperature;BMP_pressure;BME280_temperature;BME280_humidity;BME280_pressure;Samples;Min_cycle;Max_cycle;Signal;HPM_P1;HPM_P2
2022/10/11 00:00:44;;;;;;;;;;;;;;;21.55;65.83;99853.16;7312466;19;129052;-39
2022/10/11 00:03:09;;;;;;;;;;;;;;;21.57;66.10;99853.03;7314192;19;129292;-38
2022/10/11 00:05:35;;;;;;;;;;;;;;;21.54;65.50;99859.38;7313758;19;130217;-41
2022/10/11 00:08:00;;;;;;;;;;;;;;;21.54;65.57;99863.75;7315124;19;129049;-39
2022/10/11 00:10:26;;;;;;;;;;;;;;;21.44;65.44;99858.50;7313799;19;129617;-40
2022/10/11 00:12:51;;;;;;;;;;;;;;;21.51;66.03;99880.56;7314145;19;130328;-38
2022/10/11 00:15:18;;;;;;;;;;;;;;;21.54;66.02;99884.69;7314214;19;130254;-39
2022/10/11 00:17:43;;;;;;;;;;;;;;;21.55;65.76;99881.13;7315399;19;129005;-38
2022/10/11 00:20:10;;;;;;;;;;;;;;;21.54;65.40;99880.28;7314080;19;130789;-40
2022/10/11 00:22:35;;;;;;;;;;;;;;;21.52;65.73;99887.44;7314794;19;131172;-39
2022/10/11 00:25:01;;;;;;;;;;;;;;;21.50;65.94;99889.34;7315080;19;129107;-38
2022/10/11 00:27:26;;;;;;;;;;;;;;;21.50;66.05;99889.34;7314006;19;129253;-39
2022/10/11 00:29:52;;;;;;;;;;;;;;;21.47;65.72;99892.25;7314989;19;129021;-38
2022/10/11 00:32:17;;;;;;;;;;;;;;;21.49;66.06;99900.78;7313837;19;131021;-40
2022/10/11 00:34:42;;;;;;;;;;;;;;;21.54;65.97;99901.22;7313810;19;129692;-37
2022/10/11 00:37:07;;;;;;;;;;;;;;;21.52;66.09;99905.75;7314872;19;129239;-38
2022/10/11 00:39:33;;;;;;;;;;;;;;;21.56;66.30;99915.00;7313301;19;129370;-39
2022/10/11 00:41:58;;;;;;;;;;;;;;;21.52;65.61;99908.38;7312530;19;129537;-39
2022/10/11 00:44:24;;;;;;;;;;;;;;;21.53;65.54;99904.81;7314512;19;129101;-39
2022/10/11 00:46:50;;;;;;;;;;;;;;;21.53;66.04;99910.03;7313486;19;129004;-38
2022/10/11 00:49:35;;;;;;;;;;;;;;;21.52;66.22;99918.84;7313772;19;128811;-39
2022/10/11 00:52:04;;;;;;;;;;;;;;;21.52;65.50;99916.22;7312611;19;129308;-39
2022/10/11 00:54:32;;;;;;;;;;;;;;;21.54;66.06;99932.63;7314359;19;130730;-37
2022/10/11 00:57:02;;;;;;;;;;;;;;;21.49;65.78;99919.09;7312384;19;129491;-38
2022/10/11 00:59:30;;;;;;;;;;;;;;;21.52;66.35;99923.22;7312714;19;129068;-39
2022/10/11 01:01:55;;;;;;;;;;;;;;;21.51;65.96;99917.19;7313091;19;130365;-40
2022/10/11 01:04:21;;;;;;;;;;;;;;;21.53;65.83;99925.75;7311638;19;129363;-37
2022/10/11 01:06:47;;;;;;;;;;;;;;;21.55;66.07;99929.03;7312674;19;129336;-39
2022/10/11 01:09:13;;;;;;;;;;;;;;;21.55;66.10;99923.00;7311283;19;128946;-38
2022/10/11 01:11:40;;;;;;;;;;;;;;;21.45;65.70;99915.06;7313043;19;129762;-36
2022/10/11 01:14:05;;;;;;;;;;;;;;;21.57;65.98;99932.34;7312193;19;129256;-42
2022/10/11 01:16:54;;;;;;;;;;;;;;;21.55;65.46;99939.50;7309079;19;129460;-40
2022/10/11 01:19:42;;;;;;;;;;;;;;;21.55;65.81;99938.69;7306590;19;130096;-37
2022/10/11 01:22:07;;;;;;;;;;;;;;;21.56;65.63;99943.78;7309856;19;129240;-40
2022/10/11 01:24:52;;;;;;;;;;;;;;;21.49;65.67;99939.19;7308152;19;129512;-39
2022/10/11 01:27:36;;;;;;;;;;;;;;;21.48;66.51;99948.84;7311503;19;129640;-39
2022/10/11 01:30:17;;;;;;;;;;;;;;;21.51;65.98;99952.97;7312702;19;128995;-39
2022/10/11 01:32:48;;;;;;;;;;;;;;;21.43;65.99;99940.56;7312376;19;129291;-38
2022/10/11 01:35:16;;;;;;;;;;;;;;;21.53;65.34;99957.13;7310432;19;129639;-38
2022/10/11 01:37:45;;;;;;;;;;;;;;;21.53;65.44;99957.13;7312613;19;129058;-35
2022/10/11 01:40:10;;;;;;;;;;;;;;;21.53;65.67;99951.06;7310011;19;129125;-37
2022/10/11 01:42:37;;;;;;;;;;;;;;;21.44;65.87;99936.13;7307510;19;132607;-39
2022/10/11 01:45:03;;;;;;;;;;;;;;;21.43;66.03;99940.56;7310801;19;130221;-39
2022/10/11 01:47:29;;;;;;;;;;;;;;;21.55;65.99;99955.19;7307493;19;130791;-39
2022/10/11 01:49:55;;;;;;;;;;;;;;;21.53;65.68;99951.91;7312790;19;129572;-37
2022/10/11 01:52:21;;;;;;;;;;;;;;;21.54;65.65;99963.19;7309918;19;130203;-41
2022/10/11 01:55:05;;;;;;;;;;;;;;;21.45;65.56;99943.03;7311516;19;130628;-38
2022/10/11 01:57:30;;;;;;;;;;;;;;;21.50;65.69;99962.59;7310420;19;129042;-38
2022/10/11 02:00:02;;;;;;;;;;;;;;;21.40;65.46;99950.44;7310292;19;129100;-37
2022/10/11 02:02:33;;;;;;;;;;;;;;;21.57;65.79;99958.50;7310295;19;129185;-38
2022/10/11 02:05:27;;;;;;;;;;;;;;;21.53;65.57;99975.44;7310420;19;130396;-38
2022/10/11 02:07:55;;;;;;;;;;;;;;;21.54;65.56;99973.63;7309023;19;129763;-37
2022/10/11 02:10:31;;;;;;;;;;;;;;;21.51;66.42;99974.75;7311019;19;128991;-40
2022/10/11 02:12:59;;;;;;;;;;;;;;;21.50;65.91;99975.69;7308624;19;130780;-36
2022/10/11 02:15:27;;;;;;;;;;;;;;;21.52;66.15;99973.78;7305294;19;129596;-39
2022/10/11 02:17:55;;;;;;;;;;;;;;;21.55;65.62;99976.13;7311002;19;129197;-37
2022/10/11 02:20:23;;;;;;;;;;;;;;;21.53;65.88;99983.28;7309167;19;128943;-36
2022/10/11 02:22:50;;;;;;;;;;;;;;;21.49;66.04;99992.34;7309202;19;132010;-38
2022/10/11 02:25:23;;;;;;;;;;;;;;;21.56;65.46;99988.25;7306249;19;129846;-37
2022/10/11 02:27:52;;;;;;;;;;;;;;;21.47;65.32;99978.56;7309448;19;129393;-38
2022/10/11 02:30:17;;;;;;;;;;;;;;;21.55;66.13;99989.19;7302842;19;129217;-40
2022/10/11 02:32:43;;;;;;;;;;;;;;;21.56;65.50;99988.25;7308368;19;130112;-38
2022/10/11 02:35:09;;;;;;;;;;;;;;;21.56;65.66;99988.25;7312489;19;129849;-38
2022/10/11 02:37:57;;;;;;;;;;;;;;;21.57;65.47;99992.53;7317097;19;129588;-39
2022/10/11 02:40:25;;;;;;;;;;;;;;;21.57;66.09;100000.38;7314609;19;129160;-39
2022/10/11 02:42:57;;;;;;;;;;;;;;;21.54;65.81;100000.63;7316208;19;129676;-40
2022/10/11 02:45:30;;;;;;;;;;;;;;;21.55;66.27;99997.06;7316028;19;130349;-39
2022/10/11 02:47:56;;;;;;;;;;;;;;;21.54;66.33;99995.41;7316570;19;129536;-38
2022/10/11 02:50:22;;;;;;;;;;;;;;;21.55;65.63;100006.72;7316373;19;128959;-37
2022/10/11 02:52:47;;;;;;;;;;;;;;;21.55;66.00;100020.59;7314073;19;129555;-39
2022/10/11 02:55:12;;;;;;;;;;;;;;;21.56;66.14;100019.66;7315943;19;129312;-37
2022/10/11 02:57:38;;;;;;;;;;;;;;;21.55;66.01;100022.41;7312946;19;129459;-38
2022/10/11 03:00:03;;;;;;;;;;;;;;;21.43;65.47;100005.94;7314982;19;129376;-38
2022/10/11 03:02:29;;;;;;;;;;;;;;;21.53;65.75;100026.94;7315050;19;128988;-40
2022/10/11 03:04:54;;;;;;;;;;;;;;;21.55;66.01;100036.28;7313484;19;129390;-38
2022/10/11 03:07:19;;;;;;;;;;;;;;;21.54;65.92;100037.25;7315756;19;129130;-38
2022/10/11 03:09:44;;;;;;;;;;;;;;;21.55;65.45;100044.16;7315576;19;128891;-38
2022/10/11 03:12:10;;;;;;;;;;;;;;;21.52;66.21;100043.56;7315135;19;129878;-39
2022/10/11 03:14:35;;;;;;;;;;;;;;;21.57;65.79;100047.47;7316477;19;129692;-39
2022/10/11 03:17:00;;;;;;;;;;;;;;;21.58;65.33;100053.53;7315237;19;129225;-38
2022/10/11 03:19:26;;;;;;;;;;;;;;;21.51;65.43;100053.22;7315274;19;129061;-38
2022/10/11 03:21:51;;;;;;;;;;;;;;;21.55;65.78;100057.22;7314267;19;130022;-38
2022/10/11 03:24:16;;;;;;;;;;;;;;;21.54;66.11;100067.81;7316296;19;129792;-37
2022/10/11 03:26:41;;;;;;;;;;;;;;;21.54;65.60;100068.66;7313482;19;129112;-39
2022/10/11 03:29:07;;;;;;;;;;;;;;;21.56;66.31;100072.00;7314505;19;128746;-38
2022/10/11 03:31:32;;;;;;;;;;;;;;;21.53;65.63;100072.25;7315682;19;129695;-37
2022/10/11 03:33:57;;;;;;;;;;;;;;;21.52;66.15;100075.81;7315469;19;129625;-37
2022/10/11 03:36:22;;;;;;;;;;;;;;;21.53;66.06;100081.88;7313826;19;128987;-38
2022/10/11 03:38:47;;;;;;;;;;;;;;;21.53;65.99;100080.09;7316481;19;131145;-40
2022/10/11 03:41:13;;;;;;;;;;;;;;;21.55;65.41;100079.97;7313033;19;130104;-39
2022/10/11 03:43:38;;;;;;;;;;;;;;;21.55;66.34;100091.25;7315831;19;129197;-39
2022/10/11 03:46:03;;;;;;;;;;;;;;;21.54;66.08;100088.75;7311547;19;129278;-36
2022/10/11 03:48:28;;;;;;;;;;;;;;;21.51;65.79;100097.69;7316117;19;129290;-38
2022/10/11 03:50:54;;;;;;;;;;;;;;;21.45;66.19;100084.31;7316083;19;129509;-37
2022/10/11 03:53:19;;;;;;;;;;;;;;;21.52;66.26;100096.72;7314967;19;129208;-40
2022/10/11 03:55:44;;;;;;;;;;;;;;;21.55;65.45;100106.13;7312707;19;129598;-37
2022/10/11 03:58:10;;;;;;;;;;;;;;;21.56;65.49;100106.00;7314906;19;129601;-38
2022/10/11 04:00:35;;;;;;;;;;;;;;;21.57;66.13;100106.81;7312870;19;129903;-39
2022/10/11 04:03:02;;;;;;;;;;;;;;;21.58;65.75;100108.47;7314935;19;130602;-37
2022/10/11 04:05:27;;;;;;;;;;;;;;;21.54;65.76;100109.69;7313254;19;129069;-39
2022/10/11 04:07:53;;;;;;;;;;;;;;;21.54;65.56;100113.13;7314717;19;129073;-37
2022/10/11 04:10:18;;;;;;;;;;;;;;;21.53;65.61;100119.34;7313802;19;129405;-39
2022/10/11 04:12:43;;;;;;;;;;;;;;;21.56;66.31;100126.94;7314888;19;129726;-37
2022/10/11 04:15:12;;;;;;;;;;;;;;;21.53;65.30;100119.34;7314311;19;129604;-38
2022/10/11 04:17:37;;;;;;;;;;;;;;;21.43;66.00;100115.81;7313520;19;130129;-38
2022/10/11 04:20:03;;;;;;;;;;;;;;;21.51;65.81;100133.47;7313493;19;129693;-37
2022/10/11 04:22:28;;;;;;;;;;;;;;;21.53;65.62;100131.59;7309755;19;132679;-37
2022/10/11 04:24:54;;;;;;;;;;;;;;;21.54;66.27;100133.22;7313982;19;130806;-39
2022/10/11 04:27:19;;;;;;;;;;;;;;;21.52;66.10;100129.91;7307436;19;129539;-38
2022/10/11 04:29:44;;;;;;;;;;;;;;;21.53;65.65;100137.66;7313748;19;129273;-39
2022/10/11 04:32:09;;;;;;;;;;;;;;;21.55;65.50;100140.13;7313752;19;129992;-38
2022/10/11 04:34:34;;;;;;;;;;;;;;;21.54;65.39;100141.91;7314157;19;129117;-39
2022/10/11 04:37:00;;;;;;;;;;;;;;;21.52;66.00;100151.66;7314586;19;129115;-39
2022/10/11 04:39:25;;;;;;;;;;;;;;;21.52;66.38;100154.28;7313881;19;129084;-40
2022/10/11 04:41:50;;;;;;;;;;;;;;;21.50;66.16;100156.19;7312188;19;131166;-37
2022/10/11 04:44:15;;;;;;;;;;;;;;;21.54;65.57;100156.78;7314487;19;130432;-38
2022/10/11 04:46:41;;;;;;;;;;;;;;;21.56;65.71;100154.88;7311633;19;128955;-39
2022/10/11 04:49:06;;;;;;;;;;;;;;;21.56;65.79;100160.09;7313220;19;129016;-37
2022/10/11 04:51:32;;;;;;;;;;;;;;;21.53;65.73;100166.44;7312050;19;130283;-38
2022/10/11 04:53:58;;;;;;;;;;;;;;;21.55;66.17;100172.34;7312481;19;129500;-37
2022/10/11 04:56:23;;;;;;;;;;;;;;;21.59;66.04;100170.31;7310488;19;129828;-39
2022/10/11 04:58:50;;;;;;;;;;;;;;;21.56;65.63;100171.41;7310166;19;129351;-38
2022/10/11 05:01:16;;;;;;;;;;;;;;;21.47;65.62;100161.69;7307769;19;129473;-39
2022/10/11 05:03:41;;;;;;;;;;;;;;;21.53;66.06;100184.75;7311379;19;129469;-38
2022/10/11 05:06:06;;;;;;;;;;;;;;;21.57;65.77;100187.91;7300985;19;129078;-37
2022/10/11 05:08:32;;;;;;;;;;;;;;;21.53;66.21;100189.13;7309875;19;129186;-40
2022/10/11 05:10:59;;;;;;;;;;;;;;;21.44;65.80;100171.56;7310396;19;129836;-36
2022/10/11 05:13:25;;;;;;;;;;;;;;;21.45;65.47;100171.44;7312422;19;130444;-37
2022/10/11 05:15:50;;;;;;;;;;;;;;;21.55;65.77;100195.09;7308613;19;129289;-37
2022/10/11 05:18:16;;;;;;;;;;;;;;;21.56;65.46;100197.56;7308477;19;130864;-42
2022/10/11 05:20:41;;;;;;;;;;;;;;;21.58;65.72;100205.28;7310070;19;130520;-38
2022/10/11 05:23:07;;;;;;;;;;;;;;;21.58;65.56;100206.13;7313068;19;131351;-37
2022/10/11 05:25:32;;;;;;;;;;;;;;;21.59;65.97;100213.00;7308909;19;129336;-39
2022/10/11 05:27:57;;;;;;;;;;;;;;;21.57;65.43;100214.91;7312385;19;129411;-38
2022/10/11 05:30:23;;;;;;;;;;;;;;;21.54;66.00;100215.19;7310779;19;130279;-40
2022/10/11 05:32:48;;;;;;;;;;;;;;;21.55;65.55;100222.06;7305814;19;129321;-39
2022/10/11 05:35:13;;;;;;;;;;;;;;;21.56;65.59;100223.75;7310738;19;129189;-38
2022/10/11 05:37:38;;;;;;;;;;;;;;;21.57;66.17;100230.63;7312976;19;129198;-39
2022/10/11 05:40:04;;;;;;;;;;;;;;;21.55;65.89;100235.13;7311529;19;129312;-38
2022/10/11 05:42:29;;;;;;;;;;;;;;;21.53;65.97;100237.06;7311599;19;130340;-37
2022/10/11 05:44:54;;;;;;;;;;;;;;;21.55;65.50;100235.13;7312101;19;129295;-39
2022/10/11 05:47:20;;;;;;;;;;;;;;;21.60;66.26;100242.63;7312727;19;128971;-38
2022/10/11 05:49:45;;;;;;;;;;;;;;;21.59;65.34;100248.81;7312432;19;129360;-38
2022/10/11 05:52:12;;;;;;;;;;;;;;;21.56;66.27;100249.91;7312353;19;130101;-38
2022/10/11 05:54:37;;;;;;;;;;;;;;;21.58;65.90;100253.22;7309582;19;129688;-38
2022/10/11 05:57:02;;;;;;;;;;;;;;;21.48;65.81;100249.69;7310901;19;131059;-38
2022/10/11 05:59:27;;;;;;;;;;;;;;;21.53;65.49;100265.84;7309101;19;130710;-39
2022/10/11 06:01:53;;;;;;;;;;;;;;;21.56;65.80;100272.59;7306541;19;129041;-40
2022/10/11 06:04:18;;;;;;;;;;;;;;;21.55;66.30;100276.19;7308941;19;129002;-35
2022/10/11 06:06:43;;;;;;;;;;;;;;;21.56;66.36;100281.28;7306463;19;129245;-40
2022/10/11 06:09:08;;;;;;;;;;;;;;;21.57;66.29;100282.09;7310850;19;129443;-39
2022/10/11 06:11:34;;;;;;;;;;;;;;;21.55;65.97;100290.09;7317066;19;129328;-38
2022/10/11 06:13:59;;;;;;;;;;;;;;;21.57;65.51;100292.56;7314738;19;129752;-40
2022/10/11 06:16:25;;;;;;;;;;;;;;;21.54;66.10;100298.91;7315406;19;130929;-37
2022/10/11 06:18:53;;;;;;;;;;;;;;;21.57;65.91;100296.03;7316330;19;129722;-38
2022/10/11 06:21:19;;;;;;;;;;;;;;;21.56;65.57;100302.22;7315305;19;129378;-40
2022/10/11 06:23:47;;;;;;;;;;;;;;;21.60;65.32;100298.41;7317178;19;129599;-37
2022/10/11 06:26:12;;;;;;;;;;;;;;;21.59;65.32;100306.38;7315704;19;129463;-38
2022/10/11 06:28:37;;;;;;;;;;;;;;;21.56;65.64;100299.63;7317603;19;129309;-39
2022/10/11 06:31:04;;;;;;;;;;;;;;;21.52;66.17;100306.03;7317129;19;128793;-38
2022/10/11 06:33:29;;;;;;;;;;;;;;;21.51;65.70;100307.00;7318584;19;130803;-38
2022/10/11 06:35:58;;;;;;;;;;;;;;;21.56;66.06;100322.31;7316947;19;130902;-37
2022/10/11 06:38:23;;;;;;;;;;;;;;;21.57;66.00;100311.72;7316922;19;131442;-37
2022/10/11 06:40:48;;;;;;;;;;;;;;;21.55;66.30;100311.00;7316554;19;129450;-38
2022/10/11 06:43:14;;;;;;;;;;;;;;;21.57;66.20;100309.13;7315784;19;129055;-37
2022/10/11 06:45:39;;;;;;;;;;;;;;;21.56;65.74;100319.72;7315816;19;129567;-38
2022/10/11 06:48:04;;;;;;;;;;;;;;;21.59;65.96;100320.28;7316269;19;129673;-40
2022/10/11 06:50:30;;;;;;;;;;;;;;;21.58;65.37;100318.66;7317081;19;129575;-38
2022/10/11 06:52:55;;;;;;;;;;;;;;;21.56;65.80;100320.53;7316069;19;128955;-37
2022/10/11 06:55:21;;;;;;;;;;;;;;;21.56;65.50;100322.31;7312800;19;130159;-40
2022/10/11 06:57:46;;;;;;;;;;;;;;;21.56;65.96;100328.41;7314955;19;129940;-37
2022/10/11 07:00:11;;;;;;;;;;;;;;;21.50;65.82;100334.09;7317165;19;129047;-38
2022/10/11 07:02:37;;;;;;;;;;;;;;;21.46;65.52;100314.38;7315626;19;128901;-39
2022/10/11 07:05:02;;;;;;;;;;;;;;;21.56;65.84;100336.25;7315552;19;129410;-36
2022/10/11 07:07:27;;;;;;;;;;;;;;;21.55;65.77;100342.41;7314565;19;130798;-39
2022/10/11 07:09:52;;;;;;;;;;;;;;;21.53;66.05;100341.72;7314154;19;129460;-38
2022/10/11 07:12:18;;;;;;;;;;;;;;;21.46;65.92;100326.63;7315757;19;128820;-38
2022/10/11 07:14:43;;;;;;;;;;;;;;;21.58;65.39;100342.19;7309226;19;129407;-38
2022/10/11 07:17:08;;;;;;;;;;;;;;;21.57;65.60;100350.13;7315984;19;130477;-37
2022/10/11 07:19:33;;;;;;;;;;;;;;;21.53;65.93;100352.19;7315073;19;129295;-39
2022/10/11 07:21:59;;;;;;;;;;;;;;;21.55;65.46;100358.09;7309323;19;129258;-37
2022/10/11 07:24:24;;;;;;;;;;;;;;;21.50;66.25;100355.03;7313657;19;129659;-38
2022/10/11 07:26:49;;;;;;;;;;;;;;;21.54;66.20;100361.69;7313603;19;130491;-37
2022/10/11 07:29:14;;;;;;;;;;;;;;;21.58;65.67;100360.50;7311873;19;129261;-37
2022/10/11 07:31:41;;;;;;;;;;;;;;;21.57;65.78;100356.22;7296458;19;130851;-38
2022/10/11 07:34:06;;;;;;;;;;;;;;;21.53;65.79;100362.66;7304911;19;129928;-37
2022/10/11 07:36:31;;;;;;;;;;;;;;;21.54;66.11;100368.69;7310670;19;129607;-37
2022/10/11 07:38:56;;;;;;;;;;;;;;;21.53;66.22;100369.66;7314037;19;129502;-37
2022/10/11 07:41:21;;;;;;;;;;;;;;;21.55;65.97;100367.75;7312930;19;128959;-38
2022/10/11 07:43:48;;;;;;;;;;;;;;;21.53;66.15;100380.97;7312409;19;129224;-37
2022/10/11 07:46:13;;;;;;;;;;;;;;;21.52;65.85;100368.81;7311756;19;129538;-37
2022/10/11 07:48:39;;;;;;;;;;;;;;;21.51;66.37;100372.41;7313189;19;129400;-37
2022/10/11 07:51:15;;;;;;;;;;;;;;;21.52;65.82;100371.44;7313383;19;129485;-38
2022/10/11 07:53:42;;;;;;;;;;;;;;;21.55;65.90;100373.00;7312400;19;130242;-37
2022/10/11 07:56:08;;;;;;;;;;;;;;;21.52;65.75;100374.06;7311112;19;130577;-37
2022/10/11 07:58:34;;;;;;;;;;;;;;;21.50;66.33;100375.94;7312707;19;129176;-37
2022/10/11 08:00:59;;;;;;;;;;;;;;;21.54;65.21;100374.78;7313234;19;128934;-37
2022/10/11 08:03:24;;;;;;;;;;;;;;;21.58;66.27;100372.75;7310052;19;130917;-37
2022/10/11 08:05:51;;;;;;;;;;;;;;;21.56;65.44;100377.28;7311225;19;130217;-37
2022/10/11 08:08:16;;;;;;;;;;;;;;;21.47;65.94;100365.72;7312538;19;130011;-37
2022/10/11 08:10:41;;;;;;;;;;;;;;;21.53;66.29;100377.50;7314292;19;129258;-37
2022/10/11 08:13:06;;;;;;;;;;;;;;;21.53;65.97;100378.34;7312311;19;129538;-37
2022/10/11 08:15:32;;;;;;;;;;;;;;;21.61;66.03;100383.81;7306327;19;129684;-37
2022/10/11 08:17:57;;;;;;;;;;;;;;;21.57;65.22;100385.00;7311456;19;129342;-38
2022/10/11 08:20:22;;;;;;;;;;;;;;;21.55;65.78;100381.66;7308127;19;129135;-37
2022/10/11 08:22:47;;;;;;;;;;;;;;;21.57;65.60;100387.59;7308012;19;131339;-37
2022/10/11 08:25:13;;;;;;;;;;;;;;;21.57;66.31;100384.16;7306070;19;129676;-37
2022/10/11 08:27:38;;;;;;;;;;;;;;;21.57;65.77;100382.38;7308777;19;128874;-37
2022/10/11 08:30:04;;;;;;;;;;;;;;;21.58;65.96;100386.69;7308385;19;129158;-38
2022/10/11 08:32:29;;;;;;;;;;;;;;;21.55;65.39;100384.28;7306301;19;131683;-38
2022/10/11 08:34:54;;;;;;;;;;;;;;;21.61;65.31;100389.03;7311729;19;129517;-37
2022/10/11 08:37:20;;;;;;;;;;;;;;;21.58;66.04;100389.28;7311706;19;129458;-37
2022/10/11 08:39:45;;;;;;;;;;;;;;;21.59;66.00;100385.72;7313208;19;129152;-37
2022/10/11 08:42:13;;;;;;;;;;;;;;;21.60;66.02;100387.38;7309143;19;129833;-37
2022/10/11 08:44:52;;;;;;;;;;;;;;;21.58;65.82;100383.22;7312366;19;130438;-37
2022/10/11 08:47:29;;;;;;;;;;;;;;;21.58;65.50;100389.28;7313883;19;129430;-37
2022/10/11 08:49:55;;;;;;;;;;;;;;;21.59;65.80;100390.09;7312859;19;129714;-37
2022/10/11 08:52:22;;;;;;;;;;;;;;;21.54;65.37;100398.31;7311099;19;129049;-37
2022/10/11 08:54:58;;;;;;;;;;;;;;;21.57;66.18;100398.06;7310244;19;129655;-38
2022/10/11 08:57:25;;;;;;;;;;;;;;;21.59;65.44;100390.09;7312941;19;129216;-37
2022/10/11 08:59:55;;;;;;;;;;;;;;;21.61;65.33;100393.44;7311117;19;131042;-37
2022/10/11 09:02:24;;;;;;;;;;;;;;;21.59;65.26;100401.41;7307299;19;130443;-37
2022/10/11 09:04:51;;;;;;;;;;;;;;;21.58;65.72;100401.53;7311254;19;130421;-37
2022/10/11 09:07:22;;;;;;;;;;;;;;;21.59;65.95;100396.19;7308154;19;129446;-38
2022/10/11 09:10:08;;;;;;;;;;;;;;;21.56;65.68;100398.19;7310335;19;129461;-37
2022/10/11 09:12:55;;;;;;;;;;;;;;;21.54;65.83;100395.69;7302753;19;150735;-37
2022/10/11 09:15:23;;;;;;;;;;;;;;;21.38;67.38;100403.09;7309352;19;131101;-38
2022/10/11 09:18:08;;;;;;;;;;;;;;;21.48;66.17;100404.03;7308464;19;132469;-37
2022/10/11 09:20:36;;;;;;;;;;;;;;;21.46;65.76;100400.72;7308694;19;129114;-37
2022/10/11 09:23:03;;;;;;;;;;;;;;;21.50;65.59;100396.88;7310441;19;130099;-37
2022/10/11 09:25:48;;;;;;;;;;;;;;;21.55;65.40;100388.69;7307437;19;129239;-37
2022/10/11 09:28:32;;;;;;;;;;;;;;;21.58;65.64;100399.75;7308535;19;129869;-38
2022/10/11 09:30:57;;;;;;;;;;;;;;;21.56;65.82;100398.19;7310328;19;129304;-38
2022/10/11 09:33:35;;;;;;;;;;;;;;;21.53;65.60;100391.44;7306617;19;130120;-37
2022/10/11 09:36:04;;;;;;;;;;;;;;;21.57;65.91;100392.84;7305915;19;129508;-37
2022/10/11 09:38:48;;;;;;;;;;;;;;;21.54;65.81;100393.09;7311049;19;129039;-38
2022/10/11 09:41:28;;;;;;;;;;;;;;;21.56;65.30;100392.97;7310233;19;131559;-37
2022/10/11 09:43:53;;;;;;;;;;;;;;;21.48;65.56;100377.88;7306871;19;129297;-37
2022/10/11 09:46:21;;;;;;;;;;;;;;;21.56;65.80;100391.19;7308598;19;129431;-37
2022/10/11 09:48:46;;;;;;;;;;;;;;;21.60;65.80;100397.03;7310473;19;129326;-37
2022/10/11 09:51:15;;;;;;;;;;;;;;;21.58;65.84;100398.91;7311569;19;130119;-37
2022/10/11 09:53:49;;;;;;;;;;;;;;;21.50;65.31;100383.00;7308532;19;130527;-37
2022/10/11 09:56:15;;;;;;;;;;;;;;;21.58;66.12;100393.69;7307647;19;130415;-37
2022/10/11 09:58:40;;;;;;;;;;;;;;;21.58;65.58;100394.53;7309253;19;128988;-37
2022/10/11 10:01:07;;;;;;;;;;;;;;;21.58;65.47;100399.75;7309663;19;129267;-38
2022/10/11 10:03:36;;;;;;;;;;;;;;;21.58;65.99;100393.69;7308887;19;130155;-37
2022/10/11 10:06:20;;;;;;;;;;;;;;;21.57;65.82;100395.47;7307009;19;129891;-37
2022/10/11 10:08:46;;;;;;;;;;;;;;;21.56;65.75;100401.66;7308821;19;129200;-37
2022/10/11 10:11:11;;;;;;;;;;;;;;;21.56;65.44;100393.81;7309739;19;129973;-37
2022/10/11 10:13:45;;;;;;;;;;;;;;;21.54;66.12;100398.31;7308899;19;130000;-38
2022/10/11 10:16:19;;;;;;;;;;;;;;;21.53;65.69;100399.28;7304975;19;129877;-37
2022/10/11 10:18:49;;;;;;;;;;;;;;;21.54;65.90;100398.31;7309433;19;130518;-37
2022/10/11 10:21:14;;;;;;;;;;;;;;;21.45;65.78;100385.94;7306823;19;129248;-37
2022/10/11 10:23:40;;;;;;;;;;;;;;;21.55;66.07;100405.22;7308455;19;130168;-37
2022/10/11 10:26:16;;;;;;;;;;;;;;;21.58;65.94;100407.59;7306922;19;130664;-37
2022/10/11 10:29:02;;;;;;;;;;;;;;;21.58;66.22;100404.16;7309014;19;128833;-37
2022/10/11 10:31:34;;;;;;;;;;;;;;;21.56;65.93;100412.13;7307177;19;129615;-38
2022/10/11 10:34:00;;;;;;;;;;;;;;;21.51;65.81;100393.34;7305131;19;129634;-37
2022/10/11 10:36:37;;;;;;;;;;;;;;;21.57;65.72;100408.53;7306644;19;130300;-37
2022/10/11 10:39:09;;;;;;;;;;;;;;;21.61;65.40;100409.13;7305536;19;132118;-37
2022/10/11 10:41:34;;;;;;;;;;;;;;;21.60;65.89;100410.91;7307376;19;130009;-38
2022/10/11 10:44:00;;;;;;;;;;;;;;;21.62;66.20;100406.41;7307628;19;130205;-37
2022/10/11 10:46:36;;;;;;;;;;;;;;;21.60;65.70;100407.50;7306459;19;129433;-37
2022/10/11 10:49:20;;;;;;;;;;;;;;;21.62;66.13;100409.00;7307916;19;129138;-37
2022/10/11 10:52:04;;;;;;;;;;;;;;;21.50;65.81;100396.88;7308624;19;128866;-38
2022/10/11 10:54:48;;;;;;;;;;;;;;;21.51;65.93;100393.34;7306937;19;130267;-37
2022/10/11 10:57:21;;;;;;;;;;;;;;;21.57;65.92;100408.53;7314564;19;130237;-37
2022/10/11 10:59:58;;;;;;;;;;;;;;;21.58;66.22;100407.59;7312680;19;130227;-37
2022/10/11 11:02:26;;;;;;;;;;;;;;;21.55;65.80;100405.22;7312363;19;129013;-38
2022/10/11 11:05:10;;;;;;;;;;;;;;;21.49;66.29;100405.69;7313636;19;129617;-37
2022/10/11 11:07:45;;;;;;;;;;;;;;;21.47;66.26;100407.59;7302304;19;132040;-37
2022/10/11 11:10:27;;;;;;;;;;;;;;;21.48;65.94;100406.66;7310823;19;129381;-37
2022/10/11 11:12:55;;;;;;;;;;;;;;;21.49;66.41;100405.69;7315448;19;129237;-37
2022/10/11 11:15:26;;;;;;;;;;;;;;;21.53;66.26;100403.69;7313810;19;129982;-37
2022/10/11 11:17:57;;;;;;;;;;;;;;;21.54;66.24;100414.03;7314085;19;130255;-37
2022/10/11 11:20:31;;;;;;;;;;;;;;;21.48;65.88;100398.81;7315110;19;129180;-37
2022/10/11 11:23:05;;;;;;;;;;;;;;;21.55;66.01;100410.44;7313666;19;129119;-37
2022/10/11 11:25:39;;;;;;;;;;;;;;;21.53;66.56;100396.66;7312577;19;130242;-37
2022/10/11 11:28:10;;;;;;;;;;;;;;;21.55;65.55;100399.97;7313085;19;129445;-37
2022/10/11 11:30:47;;;;;;;;;;;;;;;21.54;65.55;100405.31;7314003;19;129314;-37
2022/10/11 11:33:20;;;;;;;;;;;;;;;21.52;66.03;100400.22;7312759;19;129939;-37
2022/10/11 11:35:48;;;;;;;;;;;;;;;21.53;65.86;100401.91;7311853;19;130462;-37
2022/10/11 11:38:18;;;;;;;;;;;;;;;21.54;66.04;100403.56;7313285;19;130184;-37
2022/10/11 11:40:46;;;;;;;;;;;;;;;21.55;66.21;100401.78;7314263;19;128858;-38
2022/10/11 11:43:31;;;;;;;;;;;;;;;21.54;65.62;100400.94;7313234;19;129627;-38
2022/10/11 11:46:05;;;;;;;;;;;;;;;21.55;66.04;100401.78;7313018;19;131701;-37
2022/10/11 11:48:30;;;;;;;;;;;;;;;21.56;65.74;100399.03;7314241;19;130177;-38
2022/10/11 11:51:12;;;;;;;;;;;;;;;21.54;66.20;100398.31;7313449;19;129437;-37
2022/10/11 11:53:38;;;;;;;;;;;;;;;21.47;65.83;100376.19;7313298;19;129012;-37
2022/10/11 11:56:08;;;;;;;;;;;;;;;21.57;66.13;100402.47;7312206;19;130783;-37
2022/10/11 11:58:45;;;;;;;;;;;;;;;21.54;65.84;100393.09;7313101;19;130428;-37
2022/10/11 12:01:28;;;;;;;;;;;;;;;21.55;65.45;100392.13;7313573;19;129892;-37
2022/10/11 12:03:57;;;;;;;;;;;;;;;21.45;65.69;100370.25;7313740;19;129389;-37
2022/10/11 12:06:32;;;;;;;;;;;;;;;21.54;66.14;100389.63;7310680;19;128999;-37
2022/10/11 12:09:00;;;;;;;;;;;;;;;21.56;65.67;100385.97;7312963;19;130463;-38
2022/10/11 12:11:29;;;;;;;;;;;;;;;21.54;66.00;100377.38;7312023;19;129180;-37
2022/10/11 12:13:54;;;;;;;;;;;;;;;21.58;65.95;100381.44;7311763;19;129601;-37
2022/10/11 12:16:20;;;;;;;;;;;;;;;21.56;66.02;100385.97;7310781;19;129252;-37
2022/10/11 12:18:45;;;;;;;;;;;;;;;21.53;66.22;100383.59;7310794;19;129433;-37
2022/10/11 12:21:29;;;;;;;;;;;;;;;21.55;65.76;100373.81;7311673;19;129295;-37
2022/10/11 12:23:56;;;;;;;;;;;;;;;21.55;65.54;100379.03;7311683;19;129946;-38
2022/10/11 12:26:27;;;;;;;;;;;;;;;21.55;65.65;100381.66;7309406;19;129453;-37
2022/10/11 12:29:01;;;;;;;;;;;;;;;21.54;66.26;100382.63;7313044;19;131177;-38
2022/10/11 12:31:28;;;;;;;;;;;;;;;21.54;66.03;100380.00;7312002;19;129126;-38
2022/10/11 12:34:13;;;;;;;;;;;;;;;21.52;65.46;100373.22;7311476;19;129403;-38